createdAt,value
2018-06-28T00:00:01.358Z,0.00
2018-06-28T00:01:01.353Z,0.00
2018-06-28T00:02:01.353Z,0.00
2018-06-28T00:03:01.355Z,0.00
2018-06-28T00:04:01.352Z,0.00
2018-06-28T00:05:01.351Z,0.00
2018-06-28T00:06:01.351Z,0.00
2018-06-28T00:07:01.344Z,0.00
2018-06-28T00:08:01.343Z,0.00
2018-06-28T00:09:01.342Z,0.00
2018-06-28T00:10:01.347Z,0.00
2018-06-28T00:11:01.343Z,0.00
2018-06-28T00:12:01.344Z,0.00
2018-06-28T00:13:01.335Z,0.00
2018-06-28T00:14:01.334Z,0.00
2018-06-28T00:15:01.339Z,0.00
2018-06-28T00:16:01.336Z,0.00
2018-06-28T00:17:01.333Z,0.00
2018-06-28T00:18:01.333Z,0.00
2018-06-28T00:19:01.330Z,0.00
2018-06-28T00:20:01.330Z,0.00
2018-06-28T00:21:01.322Z,0.00
2018-06-28T00:22:01.321Z,0.00
2018-06-28T00:23:01.324Z,0.00
2018-06-28T00:24:01.323Z,0.00
2018-06-28T00:25:01.321Z,0.00
2018-06-28T00:26:01.321Z,0.00
2018-06-28T00:27:01.315Z,0.00
2018-06-28T00:28:01.311Z,0.00
2018-06-28T00:29:01.314Z,0.00
2018-06-28T00:30:01.315Z,0.00
2018-06-28T00:31:01.308Z,0.00
2018-06-28T00:32:01.305Z,0.00
2018-06-28T00:33:01.303Z,0.00
2018-06-28T00:34:01.302Z,0.00
2018-06-28T00:35:01.305Z,0.00
2018-06-28T00:36:01.302Z,0.00
2018-06-28T00:37:01.301Z,0.00
2018-06-28T00:38:01.302Z,0.00
2018-06-28T00:39:01.294Z,0.00
2018-06-28T00:40:01.291Z,0.00
2018-06-28T00:41:01.290Z,0.00
2018-06-28T00:42:01.290Z,0.00
2018-06-28T00:43:01.295Z,0.00
2018-06-28T00:44:01.290Z,0.00
2018-06-28T00:45:01.283Z,0.00
2018-06-28T00:46:01.282Z,0.00
2018-06-28T00:47:01.287Z,0.00
2018-06-28T00:48:01.283Z,0.00
2018-06-28T00:49:01.280Z,0.00
2018-06-28T00:50:01.279Z,0.00
2018-06-28T00:51:01.273Z,0.00
2018-06-28T00:52:01.270Z,0.00
2018-06-28T00:53:01.271Z,0.00
2018-06-28T00:54:01.267Z,0.00
2018-06-28T00:55:01.271Z,0.00
2018-06-28T00:56:01.267Z,0.00
2018-06-28T00:57:01.267Z,0.00
2018-06-28T00:58:01.284Z,0.00
2018-06-28T00:59:01.257Z,0.00
2018-06-28T01:00:01.256Z,0.00
2018-06-28T01:01:01.259Z,0.00
2018-06-28T01:02:01.257Z,0.00
2018-06-28T01:03:01.250Z,0.00
2018-06-28T01:04:01.248Z,0.00
2018-06-28T01:05:01.246Z,0.00
2018-06-28T01:06:01.244Z,0.00
2018-06-28T01:07:01.246Z,0.00
2018-06-28T01:08:01.246Z,0.00
2018-06-28T01:09:01.242Z,0.00
2018-06-28T01:10:01.242Z,0.00
2018-06-28T01:11:01.235Z,0.00
2018-06-28T01:12:01.233Z,0.00
2018-06-28T01:13:01.231Z,0.00
2018-06-28T01:14:01.230Z,0.00
2018-06-28T01:15:01.231Z,0.00
2018-06-28T01:16:01.229Z,0.00
2018-06-28T01:17:01.222Z,0.00
2018-06-28T01:18:01.220Z,0.00
2018-06-28T01:19:01.224Z,0.00
2018-06-28T01:20:01.221Z,0.00
2018-06-28T01:21:01.219Z,0.00
2018-06-28T01:22:01.218Z,0.00
2018-06-28T01:23:01.212Z,0.00
2018-06-28T01:24:01.209Z,0.00
2018-06-28T01:25:01.209Z,0.00
2018-06-28T01:26:01.204Z,0.00
2018-06-28T01:27:01.207Z,0.00
2018-06-28T01:28:01.253Z,0.00
2018-06-28T01:29:01.202Z,0.00
2018-06-28T01:30:01.200Z,0.00
2018-06-28T01:31:01.195Z,0.00
2018-06-28T01:32:01.190Z,0.00
2018-06-28T01:33:01.195Z,0.00
2018-06-28T01:34:01.192Z,0.00
2018-06-28T01:35:01.187Z,0.00
2018-06-28T01:36:01.182Z,0.00
2018-06-28T01:37:01.184Z,0.00
2018-06-28T01:38:01.178Z,0.00
2018-06-28T01:39:01.184Z,0.00
2018-06-28T01:40:01.178Z,0.00
2018-06-28T01:41:01.178Z,0.00
2018-06-28T01:42:01.175Z,0.00
2018-06-28T01:43:01.167Z,0.00
2018-06-28T01:44:01.207Z,0.00
2018-06-28T01:45:01.162Z,0.00
2018-06-28T01:46:01.159Z,0.00
2018-06-28T01:47:01.162Z,0.00
2018-06-28T01:48:01.159Z,0.00
2018-06-28T01:49:01.154Z,0.00
2018-06-28T01:50:01.150Z,0.00
2018-06-28T01:51:01.152Z,0.00
2018-06-28T01:52:01.149Z,0.00
2018-06-28T01:53:01.227Z,0.00
2018-06-28T01:54:01.145Z,0.00
2018-06-28T01:55:01.140Z,0.00
2018-06-28T01:56:01.136Z,0.00
2018-06-28T01:57:01.135Z,0.00
2018-06-28T01:58:01.132Z,0.00
2018-06-28T01:59:01.133Z,0.00
2018-06-28T02:00:01.131Z,0.00
2018-06-28T02:01:01.129Z,0.00
2018-06-28T02:02:01.127Z,0.00
2018-06-28T02:03:01.122Z,0.00
2018-06-28T02:04:01.116Z,0.00
2018-06-28T02:05:01.117Z,0.00
2018-06-28T02:06:01.115Z,0.00
2018-06-28T02:07:01.109Z,0.00
2018-06-28T02:08:01.105Z,0.00
2018-06-28T02:09:01.103Z,0.00
2018-06-28T02:10:01.101Z,0.00
2018-06-28T02:11:01.105Z,0.00
2018-06-28T02:12:01.104Z,0.00
2018-06-28T02:13:01.093Z,0.00
2018-06-28T02:14:01.091Z,0.00
2018-06-28T02:15:01.092Z,0.00
2018-06-28T02:16:01.090Z,0.00
2018-06-28T02:17:01.088Z,0.00
2018-06-28T02:18:01.085Z,0.00
2018-06-28T02:19:01.083Z,0.00
2018-06-28T02:20:01.076Z,0.00
2018-06-28T02:21:01.077Z,0.00
2018-06-28T02:22:01.075Z,0.00
2018-06-28T02:23:01.068Z,0.00
2018-06-28T02:24:01.064Z,0.00
2018-06-28T02:25:01.064Z,0.00
2018-06-28T02:26:01.060Z,0.00
2018-06-28T02:27:01.061Z,0.00
2018-06-28T02:28:01.058Z,0.00
2018-06-28T02:29:01.055Z,0.00
2018-06-28T02:30:01.053Z,0.00
2018-06-28T02:31:01.046Z,0.00
2018-06-28T02:32:01.047Z,0.00
2018-06-28T02:33:01.040Z,0.00
2018-06-28T02:34:01.038Z,0.00
2018-06-28T02:35:01.042Z,0.00
2018-06-28T02:36:01.038Z,0.00
2018-06-28T02:37:01.030Z,0.00
2018-06-28T02:38:01.027Z,0.00
2018-06-28T02:39:01.030Z,0.00
2018-06-28T02:40:01.026Z,0.00
2018-06-28T02:41:01.023Z,0.00
2018-06-28T02:42:01.024Z,0.00
2018-06-28T02:43:01.012Z,0.00
2018-06-28T02:44:01.010Z,0.00
2018-06-28T02:45:01.007Z,0.00
2018-06-28T02:46:01.004Z,0.00
2018-06-28T02:47:01.007Z,0.00
2018-06-28T02:48:01.003Z,0.00
2018-06-28T02:49:01.002Z,0.00
2018-06-28T02:50:01.003Z,0.00
2018-06-28T02:51:00.990Z,0.00
2018-06-28T02:52:00.988Z,0.00
2018-06-28T02:53:00.990Z,0.00
2018-06-28T02:54:00.987Z,0.00
2018-06-28T02:55:00.979Z,0.00
2018-06-28T02:56:00.977Z,0.00
2018-06-28T02:57:00.973Z,0.00
2018-06-28T02:58:00.970Z,0.00
2018-06-28T02:59:00.971Z,0.00
2018-06-28T03:00:00.968Z,0.00
2018-06-28T03:01:00.965Z,0.00
2018-06-28T03:02:00.964Z,0.00
2018-06-28T03:03:00.956Z,0.00
2018-06-28T03:04:00.953Z,0.00
2018-06-28T03:05:00.949Z,0.00
2018-06-28T03:06:00.946Z,0.00
2018-06-28T03:07:00.949Z,0.00
2018-06-28T03:08:00.944Z,0.00
2018-06-28T03:09:00.937Z,5.63
2018-06-28T03:10:00.934Z,5.63
2018-06-28T03:11:00.937Z,5.63
2018-06-28T03:12:00.933Z,5.63
2018-06-28T03:13:00.977Z,5.63
2018-06-28T03:14:00.926Z,5.63
2018-06-28T03:15:00.919Z,5.63
2018-06-28T03:16:00.916Z,5.63
2018-06-28T03:17:00.913Z,5.63
2018-06-28T03:18:00.912Z,11.25
2018-06-28T03:19:00.914Z,11.25
2018-06-28T03:20:00.908Z,11.25
2018-06-28T03:21:00.905Z,11.25
2018-06-28T03:22:00.901Z,11.25
2018-06-28T03:23:00.894Z,11.25
2018-06-28T03:24:00.890Z,16.88
2018-06-28T03:25:00.893Z,16.88
2018-06-28T03:26:00.892Z,16.88
2018-06-28T03:27:00.881Z,16.88
2018-06-28T03:28:00.879Z,16.88
2018-06-28T03:29:00.876Z,22.50
2018-06-28T03:30:00.873Z,22.50
2018-06-28T03:31:00.905Z,22.50
2018-06-28T03:32:00.872Z,28.13
2018-06-28T03:33:00.868Z,28.13
2018-06-28T03:34:00.866Z,28.13
2018-06-28T03:35:00.858Z,28.13
2018-06-28T03:36:00.855Z,33.75
2018-06-28T03:37:00.850Z,33.75
2018-06-28T03:38:00.891Z,33.75
2018-06-28T03:39:00.849Z,33.75
2018-06-28T03:40:00.851Z,39.38
2018-06-28T03:41:00.838Z,39.38
2018-06-28T03:42:00.835Z,39.38
2018-06-28T03:43:00.840Z,45.00
2018-06-28T03:44:00.832Z,45.00
2018-06-28T03:45:00.831Z,45.00
2018-06-28T03:46:00.870Z,50.63
2018-06-28T03:47:00.819Z,50.63
2018-06-28T03:48:00.816Z,50.63
2018-06-28T03:49:00.812Z,56.25
2018-06-28T03:50:00.809Z,56.25
2018-06-28T03:51:00.812Z,56.25
2018-06-28T03:52:00.807Z,61.88
2018-06-28T03:53:00.804Z,61.88
2018-06-28T03:54:00.802Z,61.88
2018-06-28T03:55:00.794Z,67.50
2018-06-28T03:56:00.790Z,67.50
2018-06-28T03:57:00.813Z,67.50
2018-06-28T03:58:00.790Z,73.13
2018-06-28T03:59:00.782Z,73.13
2018-06-28T04:00:00.778Z,73.13
2018-06-28T04:01:00.775Z,78.75
2018-06-28T04:02:00.773Z,78.75
2018-06-28T04:03:00.775Z,78.75
2018-06-28T04:04:00.771Z,84.38
2018-06-28T04:05:00.768Z,84.38
2018-06-28T04:06:00.766Z,84.38
2018-06-28T04:07:00.760Z,90.00
2018-06-28T04:08:00.753Z,90.00
2018-06-28T04:09:00.750Z,90.00
2018-06-28T04:10:00.748Z,95.63
2018-06-28T04:11:00.749Z,95.63
2018-06-28T04:12:00.749Z,101.25
2018-06-28T04:13:00.743Z,101.25
2018-06-28T04:14:00.736Z,101.25
2018-06-28T04:15:00.738Z,106.88
2018-06-28T04:16:00.733Z,106.88
2018-06-28T04:17:00.732Z,106.88
2018-06-28T04:18:00.729Z,112.50
2018-06-28T04:19:00.721Z,112.50
2018-06-28T04:20:00.718Z,118.13
2018-06-28T04:21:00.716Z,118.13
2018-06-28T04:22:00.711Z,118.13
2018-06-28T04:23:00.713Z,123.75
2018-06-28T04:24:00.711Z,123.75
2018-06-28T04:25:00.708Z,123.75
2018-06-28T04:26:00.705Z,129.38
2018-06-28T04:27:00.697Z,129.38
2018-06-28T04:28:00.693Z,135.00
2018-06-28T04:29:00.696Z,135.00
2018-06-28T04:30:00.694Z,135.00
2018-06-28T04:31:00.688Z,140.63
2018-06-28T04:32:00.688Z,140.63
2018-06-28T04:33:00.683Z,140.63
2018-06-28T04:34:00.677Z,146.25
2018-06-28T04:35:00.680Z,146.25
2018-06-28T04:36:00.676Z,151.88
2018-06-28T04:37:00.672Z,151.88
2018-06-28T04:38:00.670Z,151.88
2018-06-28T04:39:00.663Z,157.50
2018-06-28T04:40:00.660Z,157.50
2018-06-28T04:41:00.729Z,163.13
2018-06-28T04:42:00.655Z,163.13
2018-06-28T04:43:00.658Z,163.13
2018-06-28T04:44:00.654Z,168.75
2018-06-28T04:45:00.647Z,168.75
2018-06-28T04:46:00.645Z,174.38
2018-06-28T04:47:00.647Z,174.38
2018-06-28T04:48:00.645Z,180.00
2018-06-28T04:49:00.641Z,180.00
2018-06-28T04:50:00.639Z,185.63
2018-06-28T04:51:00.633Z,185.63
2018-06-28T04:52:00.630Z,191.25
2018-06-28T04:53:00.627Z,191.25
2018-06-28T04:54:00.624Z,191.25
2018-06-28T04:55:00.629Z,202.50
2018-06-28T04:56:00.624Z,219.38
2018-06-28T04:57:00.623Z,247.50
2018-06-28T04:58:00.623Z,303.75
2018-06-28T04:59:00.613Z,360.00
2018-06-28T05:00:00.610Z,444.38
2018-06-28T05:01:00.613Z,523.13
2018-06-28T05:02:00.611Z,562.50
2018-06-28T05:03:00.609Z,590.63
2018-06-28T05:04:00.604Z,624.38
2018-06-28T05:05:00.600Z,646.88
2018-06-28T05:06:00.599Z,680.63
2018-06-28T05:07:00.648Z,714.38
2018-06-28T05:08:00.601Z,753.75
2018-06-28T05:09:00.600Z,798.75
2018-06-28T05:10:00.600Z,826.88
2018-06-28T05:11:00.596Z,860.63
2018-06-28T05:12:00.594Z,883.13
2018-06-28T05:13:00.595Z,911.25
2018-06-28T05:14:00.601Z,933.75
2018-06-28T05:15:00.603Z,956.25
2018-06-28T05:16:00.601Z,978.75
2018-06-28T05:17:00.621Z,990.00
2018-06-28T05:18:00.601Z,1012.50
2018-06-28T05:19:00.606Z,1029.38
2018-06-28T05:20:00.609Z,1051.88
2018-06-28T05:21:00.610Z,1080.00
2018-06-28T05:22:00.615Z,1085.63
2018-06-28T05:23:00.612Z,1096.88
2018-06-28T05:24:00.614Z,1125.00
2018-06-28T05:25:00.617Z,1130.63
2018-06-28T05:26:00.620Z,1153.13
2018-06-28T05:27:00.630Z,1170.00
2018-06-28T05:28:00.631Z,1186.88
2018-06-28T05:29:00.639Z,1198.13
2018-06-28T05:30:00.642Z,1215.00
2018-06-28T05:31:00.640Z,1237.50
2018-06-28T05:32:00.644Z,1248.75
2018-06-28T05:33:00.653Z,1265.63
2018-06-28T05:34:00.659Z,1288.13
2018-06-28T05:35:00.737Z,1299.38
2018-06-28T05:36:00.665Z,1310.63
2018-06-28T05:37:00.668Z,1316.25
2018-06-28T05:38:00.675Z,1327.50
2018-06-28T05:39:00.684Z,1344.38
2018-06-28T05:40:00.693Z,1355.63
2018-06-28T05:41:00.699Z,1366.88
2018-06-28T05:42:00.705Z,1383.75
2018-06-28T05:43:00.703Z,1395.00
2018-06-28T05:44:00.707Z,1406.25
2018-06-28T05:45:00.714Z,1423.13
2018-06-28T05:46:00.723Z,1434.38
2018-06-28T05:47:00.773Z,1445.63
2018-06-28T05:48:00.737Z,1456.88
2018-06-28T05:49:00.741Z,1468.13
2018-06-28T05:50:00.747Z,1473.75
2018-06-28T05:51:00.759Z,1485.00
2018-06-28T05:52:00.767Z,1507.50
2018-06-28T05:53:00.771Z,1513.13
2018-06-28T05:54:00.842Z,1530.00
2018-06-28T05:55:00.782Z,1541.25
2018-06-28T05:56:00.793Z,1552.50
2018-06-28T05:57:00.795Z,1575.00
2018-06-28T05:58:00.803Z,1575.00
2018-06-28T05:59:00.820Z,1591.88
2018-06-28T06:00:00.824Z,1597.50
2018-06-28T06:01:00.830Z,1603.13
2018-06-28T06:02:00.838Z,1608.75
2018-06-28T06:03:00.842Z,1620.00
2018-06-28T06:04:00.850Z,1636.88
2018-06-28T06:05:00.863Z,1636.88
2018-06-28T06:06:00.872Z,1636.88
2018-06-28T06:07:00.880Z,1648.13
2018-06-28T06:08:00.885Z,1659.38
2018-06-28T06:09:00.895Z,1670.63
2018-06-28T06:10:00.904Z,1681.88
2018-06-28T06:11:00.918Z,1687.50
2018-06-28T06:12:00.935Z,1693.13
2018-06-28T06:13:00.942Z,1710.00
2018-06-28T06:14:00.946Z,1715.63
2018-06-28T06:15:00.949Z,1721.25
2018-06-28T06:16:00.958Z,1726.88
2018-06-28T06:17:00.969Z,1738.13
2018-06-28T06:18:00.980Z,1738.13
2018-06-28T06:19:00.992Z,1743.75
2018-06-28T06:20:01.002Z,1755.00
2018-06-28T06:21:01.009Z,1771.88
2018-06-28T06:22:01.018Z,1777.50
2018-06-28T06:23:01.032Z,1783.13
2018-06-28T06:24:01.042Z,1788.75
2018-06-28T06:25:01.053Z,1794.38
2018-06-28T06:26:01.068Z,1811.25
2018-06-28T06:27:01.070Z,1811.25
2018-06-28T06:28:01.079Z,1828.13
2018-06-28T06:29:01.090Z,1822.50
2018-06-28T06:30:01.102Z,1839.38
2018-06-28T06:31:01.118Z,1845.00
2018-06-28T06:32:01.126Z,1850.63
2018-06-28T06:33:01.137Z,1861.88
2018-06-28T06:34:01.294Z,1861.88
2018-06-28T06:35:01.156Z,1873.13
2018-06-28T06:36:01.166Z,1878.75
2018-06-28T06:37:01.181Z,1884.38
2018-06-28T06:38:01.194Z,1895.63
2018-06-28T06:39:01.199Z,1895.63
2018-06-28T06:40:01.211Z,1912.50
2018-06-28T06:41:01.272Z,1912.50
2018-06-28T06:42:01.234Z,1923.75
2018-06-28T06:43:01.251Z,1929.38
2018-06-28T06:44:01.263Z,1940.63
2018-06-28T06:45:01.273Z,1946.25
2018-06-28T06:46:01.289Z,1957.50
2018-06-28T06:47:01.294Z,1968.75
2018-06-28T06:48:01.306Z,1974.38
2018-06-28T06:49:01.318Z,1985.63
2018-06-28T06:50:01.332Z,1996.88
2018-06-28T06:51:01.346Z,1991.25
2018-06-28T06:52:01.358Z,1996.88
2018-06-28T06:53:01.367Z,2008.13
2018-06-28T06:54:01.380Z,2013.75
2018-06-28T06:55:01.397Z,2030.63
2018-06-28T06:56:01.412Z,2036.25
2018-06-28T06:57:01.422Z,2047.50
2018-06-28T06:58:01.436Z,2047.50
2018-06-28T06:59:01.444Z,2058.75
2018-06-28T07:00:01.456Z,2058.75
2018-06-28T07:01:01.470Z,2070.00
2018-06-28T07:02:01.483Z,2086.88
2018-06-28T07:03:01.503Z,2081.25
2018-06-28T07:04:01.513Z,2092.50
2018-06-28T07:05:01.528Z,2109.38
2018-06-28T07:06:01.540Z,2120.63
2018-06-28T07:07:01.549Z,2131.88
2018-06-28T07:08:01.561Z,2143.13
2018-06-28T07:09:01.579Z,2148.75
2018-06-28T07:10:01.593Z,2154.38
2018-06-28T07:11:01.603Z,2165.63
2018-06-28T07:12:01.615Z,2182.50
2018-06-28T07:13:01.632Z,2210.63
2018-06-28T07:14:01.644Z,2233.13
2018-06-28T07:15:01.664Z,2272.50
2018-06-28T07:16:01.750Z,2311.88
2018-06-28T07:17:01.688Z,2334.38
2018-06-28T07:18:01.704Z,2379.38
2018-06-28T07:19:01.713Z,2424.38
2018-06-28T07:20:01.824Z,2480.63
2018-06-28T07:21:01.740Z,2548.13
2018-06-28T07:22:01.787Z,2621.25
2018-06-28T07:23:01.798Z,2778.75
2018-06-28T07:24:01.789Z,2953.13
2018-06-28T07:25:01.799Z,3211.88
2018-06-28T07:26:01.813Z,2868.75
2018-06-28T07:27:01.831Z,3211.88
2018-06-28T07:28:01.845Z,3633.75
2018-06-28T07:29:01.859Z,3898.13
2018-06-28T07:30:01.875Z,4021.88
2018-06-28T07:31:01.885Z,3819.38
2018-06-28T07:32:01.903Z,3628.13
2018-06-28T07:33:01.938Z,3661.88
2018-06-28T07:34:01.966Z,3819.38
2018-06-28T07:35:01.950Z,4066.88
2018-06-28T07:36:01.964Z,4241.25
2018-06-28T07:37:01.980Z,4218.75
2018-06-28T07:38:01.994Z,4156.88
2018-06-28T07:39:02.008Z,4083.75
2018-06-28T07:40:02.037Z,4033.13
2018-06-28T07:41:02.046Z,4111.88
2018-06-28T07:42:02.061Z,4393.13
2018-06-28T07:43:02.068Z,4516.88
2018-06-28T07:44:02.085Z,4314.38
2018-06-28T07:45:02.099Z,4601.25
2018-06-28T07:46:02.115Z,4888.13
2018-06-28T07:47:02.135Z,4905.00
2018-06-28T07:48:02.150Z,5186.25
2018-06-28T07:49:02.211Z,4933.13
2018-06-28T07:50:02.183Z,4966.88
2018-06-28T07:51:02.196Z,5287.50
2018-06-28T07:52:02.212Z,5152.50
2018-06-28T07:53:02.230Z,5040.00
2018-06-28T07:54:02.246Z,5113.13
2018-06-28T07:55:02.267Z,5158.13
2018-06-28T07:56:02.281Z,4708.13
2018-06-28T07:57:02.295Z,4972.50
2018-06-28T07:58:02.311Z,5152.50
2018-06-28T07:59:02.332Z,5135.63
2018-06-28T08:00:02.350Z,5056.88
2018-06-28T08:01:02.366Z,5310.00
2018-06-28T08:02:02.381Z,5023.13
2018-06-28T08:03:02.393Z,4691.25
2018-06-28T08:04:02.411Z,4640.63
2018-06-28T08:05:02.427Z,4668.75
2018-06-28T08:06:02.446Z,4651.88
2018-06-28T08:07:02.466Z,4353.75
2018-06-28T08:08:02.484Z,4455.00
2018-06-28T08:09:02.501Z,4336.88
2018-06-28T08:10:02.517Z,4196.25
2018-06-28T08:11:02.531Z,4134.38
2018-06-28T08:12:02.547Z,4078.13
2018-06-28T08:13:02.570Z,4286.25
2018-06-28T08:14:02.589Z,4213.13
2018-06-28T08:15:02.600Z,3993.75
2018-06-28T08:16:02.618Z,3740.63
2018-06-28T08:17:02.636Z,3976.88
2018-06-28T08:18:02.652Z,4612.50
2018-06-28T08:19:02.674Z,4888.13
2018-06-28T08:20:02.692Z,4556.25
2018-06-28T08:21:02.709Z,3976.88
2018-06-28T08:22:02.726Z,3825.00
2018-06-28T08:23:02.740Z,3892.50
2018-06-28T08:24:02.757Z,4168.13
2018-06-28T08:25:02.774Z,4201.88
2018-06-28T08:26:02.792Z,3988.13
2018-06-28T08:27:02.867Z,3903.75
2018-06-28T08:28:02.832Z,3892.50
2018-06-28T08:29:02.845Z,3791.25
2018-06-28T08:30:02.862Z,3988.13
2018-06-28T08:31:02.884Z,3881.25
2018-06-28T08:32:02.901Z,3763.13
2018-06-28T08:33:02.920Z,3701.25
2018-06-28T08:34:02.935Z,3656.25
2018-06-28T08:35:02.948Z,3690.00
2018-06-28T08:36:03.010Z,3673.13
2018-06-28T08:37:02.982Z,3560.63
2018-06-28T08:38:03.000Z,3628.13
2018-06-28T08:39:03.023Z,3768.75
2018-06-28T08:40:03.042Z,3886.88
2018-06-28T08:41:03.055Z,3819.38
2018-06-28T08:42:03.073Z,3661.88
2018-06-28T08:43:03.085Z,3571.88
2018-06-28T08:44:03.101Z,3656.25
2018-06-28T08:45:03.123Z,3735.00
2018-06-28T08:46:03.140Z,3763.13
2018-06-28T08:47:03.153Z,3712.50
2018-06-28T08:48:03.169Z,3763.13
2018-06-28T08:49:03.260Z,3886.88
2018-06-28T08:50:03.202Z,3774.38
2018-06-28T08:51:03.224Z,3566.25
2018-06-28T08:52:03.240Z,3656.25
2018-06-28T08:53:03.254Z,3841.88
2018-06-28T08:54:03.271Z,3982.50
2018-06-28T08:55:03.285Z,4083.75
2018-06-28T08:56:03.298Z,4066.88
2018-06-28T08:57:03.315Z,4044.38
2018-06-28T08:58:03.429Z,4061.25
2018-06-28T08:59:03.352Z,4230.00
2018-06-28T09:00:03.367Z,4612.50
2018-06-28T09:01:03.384Z,4910.63
2018-06-28T09:02:03.396Z,5073.75
2018-06-28T09:03:03.418Z,4927.50
2018-06-28T09:04:03.432Z,4438.13
2018-06-28T09:05:03.453Z,3937.50
2018-06-28T09:06:03.468Z,3605.63
2018-06-28T09:07:03.480Z,3465.00
2018-06-28T09:08:03.496Z,3335.63
2018-06-28T09:09:03.512Z,3324.38
2018-06-28T09:10:03.535Z,3279.38
2018-06-28T09:11:03.551Z,3273.75
2018-06-28T09:12:03.569Z,3285.00
2018-06-28T09:13:03.584Z,3307.50
2018-06-28T09:14:03.601Z,3335.63
2018-06-28T09:15:03.614Z,3380.63
2018-06-28T09:16:03.632Z,3380.63
2018-06-28T09:17:03.654Z,3414.38
2018-06-28T09:18:03.671Z,3414.38
2018-06-28T09:19:03.684Z,3442.50
2018-06-28T09:20:03.701Z,3493.13
2018-06-28T09:21:03.722Z,3515.63
2018-06-28T09:22:03.737Z,3560.63
2018-06-28T09:23:03.766Z,3594.38
2018-06-28T09:24:03.777Z,3616.88
2018-06-28T09:25:03.795Z,3645.00
2018-06-28T09:26:03.814Z,3673.13
2018-06-28T09:27:03.825Z,3690.00
2018-06-28T09:28:03.842Z,3723.75
2018-06-28T09:29:03.860Z,3774.38
2018-06-28T09:30:03.879Z,3785.63
2018-06-28T09:31:03.903Z,3841.88
2018-06-28T09:32:03.917Z,3847.50
2018-06-28T09:33:03.930Z,3886.88
2018-06-28T09:34:03.948Z,3870.00
2018-06-28T09:35:03.970Z,3875.63
2018-06-28T09:36:03.987Z,3886.88
2018-06-28T09:37:04.007Z,3898.13
2018-06-28T09:38:04.030Z,3903.75
2018-06-28T09:39:04.038Z,3892.50
2018-06-28T09:40:04.055Z,3892.50
2018-06-28T09:41:04.072Z,3903.75
2018-06-28T09:42:04.091Z,3886.88
2018-06-28T09:43:04.112Z,3864.38
2018-06-28T09:44:04.130Z,3841.88
2018-06-28T09:45:04.152Z,3864.38
2018-06-28T09:46:04.168Z,3858.75
2018-06-28T09:47:04.180Z,3858.75
2018-06-28T09:48:04.200Z,3825.00
2018-06-28T09:49:04.224Z,3796.88
2018-06-28T09:50:04.245Z,3763.13
2018-06-28T09:51:04.252Z,3684.38
2018-06-28T09:52:04.270Z,3650.63
2018-06-28T09:53:04.287Z,3605.63
2018-06-28T09:54:04.306Z,3605.63
2018-06-28T09:55:04.329Z,3538.13
2018-06-28T09:56:04.345Z,3487.50
2018-06-28T09:57:04.363Z,3442.50
2018-06-28T09:58:04.381Z,3380.63
2018-06-28T09:59:04.395Z,3330.00
2018-06-28T10:00:04.412Z,3301.88
2018-06-28T10:01:04.429Z,3245.63
2018-06-28T10:02:04.447Z,3189.38
2018-06-28T10:03:04.469Z,3127.50
2018-06-28T10:04:04.486Z,3082.50
2018-06-28T10:05:04.498Z,3031.88
2018-06-28T10:06:04.514Z,2975.63
2018-06-28T10:07:04.537Z,2958.75
2018-06-28T10:08:04.552Z,2958.75
2018-06-28T10:09:04.570Z,2908.13
2018-06-28T10:10:04.584Z,2851.88
2018-06-28T10:11:04.597Z,2806.88
2018-06-28T10:12:04.613Z,2767.50
2018-06-28T10:13:04.630Z,2733.75
2018-06-28T10:14:04.646Z,2773.13
2018-06-28T10:15:04.672Z,2677.50
2018-06-28T10:16:04.683Z,2716.88
2018-06-28T10:17:04.701Z,2688.75
2018-06-28T10:18:04.752Z,2688.75
2018-06-28T10:19:04.730Z,2694.38
2018-06-28T10:20:04.747Z,2728.13
2018-06-28T10:21:04.769Z,2784.38
2018-06-28T10:22:04.786Z,3054.38
2018-06-28T10:23:04.799Z,3706.88
2018-06-28T10:24:04.814Z,4089.38
2018-06-28T10:25:04.856Z,3976.88
2018-06-28T10:26:04.848Z,4061.25
2018-06-28T10:27:04.870Z,4522.50
2018-06-28T10:28:04.886Z,4758.75
2018-06-28T10:29:04.903Z,4781.25
2018-06-28T10:30:04.922Z,4770.00
2018-06-28T10:31:04.936Z,5085.00
2018-06-28T10:32:04.949Z,5310.00
2018-06-28T10:33:04.967Z,5146.88
2018-06-28T10:34:04.985Z,5101.88
2018-06-28T10:35:05.007Z,5276.25
2018-06-28T10:36:05.023Z,5253.75
2018-06-28T10:37:05.035Z,5051.25
2018-06-28T10:38:05.053Z,5265.00
2018-06-28T10:39:05.074Z,5169.38
2018-06-28T10:40:05.090Z,4910.63
2018-06-28T10:41:05.108Z,4792.50
2018-06-28T10:42:05.124Z,5034.38
2018-06-28T10:43:05.136Z,5011.88
2018-06-28T10:44:05.153Z,5163.75
2018-06-28T10:45:05.171Z,5079.38
2018-06-28T10:46:05.186Z,5304.38
2018-06-28T10:47:05.208Z,5377.50
2018-06-28T10:48:05.229Z,5366.25
2018-06-28T10:49:05.241Z,5461.88
2018-06-28T10:50:05.258Z,5338.13
2018-06-28T10:51:05.266Z,5551.88
2018-06-28T10:52:05.282Z,5996.25
2018-06-28T10:53:05.304Z,5945.63
2018-06-28T10:54:05.413Z,5906.25
2018-06-28T10:55:05.330Z,5760.00
2018-06-28T10:56:05.344Z,5833.13
2018-06-28T10:57:05.362Z,5433.75
2018-06-28T10:58:05.377Z,5529.38
2018-06-28T10:59:05.397Z,5945.63
2018-06-28T11:00:05.413Z,5923.13
2018-06-28T11:01:05.428Z,6215.63
2018-06-28T11:02:05.444Z,6148.13
2018-06-28T11:03:05.456Z,5956.88
2018-06-28T11:04:05.471Z,5951.25
2018-06-28T11:05:05.489Z,5900.63
2018-06-28T11:06:05.503Z,5923.13
2018-06-28T11:07:05.523Z,5715.00
2018-06-28T11:08:05.538Z,4933.13
2018-06-28T11:09:05.550Z,4730.63
2018-06-28T11:10:05.569Z,5028.75
2018-06-28T11:11:05.587Z,4331.25
2018-06-28T11:12:05.603Z,5760.00
2018-06-28T11:13:05.620Z,5810.63
2018-06-28T11:14:05.635Z,5923.13
2018-06-28T11:15:05.645Z,5810.63
2018-06-28T11:16:05.660Z,5996.25
2018-06-28T11:17:05.676Z,6035.63
2018-06-28T11:18:05.692Z,6198.75
2018-06-28T11:19:05.713Z,5416.88
2018-06-28T11:20:05.727Z,4162.50
2018-06-28T11:21:05.742Z,3898.13
2018-06-28T11:22:05.761Z,5366.25
2018-06-28T11:23:05.772Z,6435.00
2018-06-28T11:24:05.782Z,4443.75
2018-06-28T11:25:05.817Z,1473.75
2018-06-28T11:26:05.817Z,652.50
2018-06-28T11:27:05.827Z,568.13
2018-06-28T11:28:05.840Z,540.00
2018-06-28T11:29:05.856Z,528.75
2018-06-28T11:30:05.868Z,523.13
2018-06-28T11:31:05.887Z,511.88
2018-06-28T11:32:05.898Z,506.25
2018-06-28T11:33:05.910Z,500.63
2018-06-28T11:34:05.979Z,495.00
2018-06-28T11:35:05.929Z,500.63
2018-06-28T11:36:05.943Z,495.00
2018-06-28T11:37:05.950Z,495.00
2018-06-28T11:38:05.958Z,495.00
2018-06-28T11:39:05.975Z,478.13
2018-06-28T11:40:05.986Z,466.88
2018-06-28T11:41:05.991Z,461.25
2018-06-28T11:42:05.997Z,438.75
2018-06-28T11:43:06.011Z,433.13
2018-06-28T11:44:06.018Z,427.50
2018-06-28T11:45:06.029Z,427.50
2018-06-28T11:46:06.036Z,421.88
2018-06-28T11:47:06.039Z,421.88
2018-06-28T11:48:06.046Z,427.50
2018-06-28T11:49:06.054Z,427.50
2018-06-28T11:50:06.061Z,427.50
2018-06-28T11:51:06.081Z,433.13
2018-06-28T11:52:06.078Z,433.13
2018-06-28T11:53:06.100Z,433.13
2018-06-28T11:54:06.093Z,433.13
2018-06-28T11:55:06.097Z,427.50
2018-06-28T11:56:06.101Z,427.50
2018-06-28T11:57:06.112Z,427.50
2018-06-28T11:58:06.120Z,433.13
2018-06-28T11:59:06.122Z,438.75
2018-06-28T12:00:06.127Z,438.75
2018-06-28T12:01:06.133Z,421.88
2018-06-28T12:02:06.140Z,410.63
2018-06-28T12:03:06.150Z,416.25
2018-06-28T12:04:06.155Z,410.63
2018-06-28T12:05:06.162Z,416.25
2018-06-28T12:06:06.168Z,427.50
2018-06-28T12:07:06.170Z,450.00
2018-06-28T12:08:06.174Z,466.88
2018-06-28T12:09:06.181Z,315.00
2018-06-28T12:10:06.189Z,292.50
2018-06-28T12:11:06.197Z,376.88
2018-06-28T12:12:06.204Z,376.88
2018-06-28T12:13:06.204Z,376.88
2018-06-28T12:14:06.214Z,371.25
2018-06-28T12:15:06.222Z,371.25
2018-06-28T12:16:06.256Z,371.25
2018-06-28T12:17:06.233Z,371.25
2018-06-28T12:18:06.237Z,376.88
2018-06-28T12:19:06.238Z,382.50
2018-06-28T12:20:06.243Z,393.75
2018-06-28T12:21:06.248Z,376.88
2018-06-28T12:22:06.254Z,376.88
2018-06-28T12:23:06.264Z,365.63
2018-06-28T12:24:06.269Z,360.00
2018-06-28T12:25:06.276Z,360.00
2018-06-28T12:26:06.282Z,365.63
2018-06-28T12:27:06.282Z,365.63
2018-06-28T12:28:06.286Z,371.25
2018-06-28T12:29:06.297Z,365.63
2018-06-28T12:30:06.303Z,360.00
2018-06-28T12:31:06.348Z,354.38